Time;durP1;ratioP1;P1;durP2;ratioP2;P2;SDS_P1;SDS_P2;PMS_P1;PMS_P2;Temp;Humidity;BMP_temperature;BMP_pressure;BME280_temperature;BME280_humidity;BME280_pressure;Samples;Min_cycle;Max_cycle;Signal;HPM_P1;HPM_P2
2022/04/21 00:00:57;;;;;;;8.20;5.93;;;;;;;;;;7299205;19;143399;-77
2022/04/21 00:03:24;;;;;;;9.05;6.18;;;;;;;;;;7300579;19;140637;-77
2022/04/21 00:05:51;;;;;;;8.20;5.70;;;;;;;;;;7300739;19;140683;-77
2022/04/21 00:08:20;;;;;;;7.30;6.00;;;;;;;;;;7299906;19;141253;-77
2022/04/21 00:10:47;;;;;;;7.93;5.35;;;;;;;;;;7298637;19;141929;-77
2022/04/21 00:13:14;;;;;;;8.00;6.00;;;;;;;;;;7298616;19;140821;-77
2022/04/21 00:15:41;;;;;;;7.57;5.28;;;;;;;;;;7303225;19;140579;-77
2022/04/21 00:18:09;;;;;;;7.15;5.30;;;;;;;;;;7300792;19;142691;-78
2022/04/21 00:20:36;;;;;;;6.97;5.57;;;;;;;;;;7301052;19;142254;-77
2022/04/21 00:25:49;;;;;;;6.13;5.00;;;;;;;;;;7299618;19;141224;-78
2022/04/21 00:28:16;;;;;;;6.93;4.93;;;;;;;;;;7298998;19;141308;-77
2022/04/21 00:30:43;;;;;;;6.38;5.22;;;;;;;;;;7299180;19;140616;-77
2022/04/21 00:33:10;;;;;;;6.80;5.00;;;;;;;;;;7299879;19;140535;-77
2022/04/21 00:35:37;;;;;;;6.07;4.90;;;;;;;;;;7299096;19;140582;-77
2022/04/21 00:38:05;;;;;;;6.25;5.05;;;;;;;;;;7299093;19;141294;-78
2022/04/21 00:40:32;;;;;;;6.13;4.70;;;;;;;;;;7298535;19;142028;-78
2022/04/21 00:43:00;;;;;;;6.95;4.85;;;;;;;;;;7299466;19;140747;-78
2022/04/21 00:45:29;;;;;;;7.90;4.93;;;;;;;;;;7299037;19;141045;-77
2022/04/21 00:47:58;;;;;;;6.05;4.50;;;;;;;;;;7297137;19;141952;-78
2022/04/21 00:50:29;;;;;;;6.20;4.20;;;;;;;;;;7298066;19;140864;-78
2022/04/21 00:52:58;;;;;;;6.88;4.55;;;;;;;;;;7299560;19;141194;-78
2022/04/21 00:55:25;;;;;;;6.72;4.60;;;;;;;;;;7298784;19;140558;-78
2022/04/21 00:57:54;;;;;;;6.15;4.60;;;;;;;;;;7298672;19;141264;-77
2022/04/21 01:00:22;;;;;;;6.55;4.72;;;;;;;;;;7298902;19;140821;-77
2022/04/21 01:02:49;;;;;;;6.20;4.60;;;;;;;;;;7298173;19;141129;-78
2022/04/21 01:05:32;;;;;;;6.68;4.53;;;;;;;;;;7297451;19;140817;-77
2022/04/21 01:08:03;;;;;;;6.55;4.32;;;;;;;;;;7298070;19;141778;-78
2022/04/21 01:10:32;;;;;;;5.80;4.13;;;;;;;;;;7296958;19;141924;-78
2022/04/21 01:13:00;;;;;;;5.53;3.83;;;;;;;;;;7298301;19;140912;-77
2022/04/21 01:15:27;;;;;;;4.60;3.90;;;;;;;;;;7298106;19;140833;-78
2022/04/21 01:17:55;;;;;;;4.60;3.80;;;;;;;;;;7295963;19;140719;-78
2022/04/21 01:20:23;;;;;;;6.13;4.18;;;;;;;;;;7298191;19;141475;-79
2022/04/21 01:22:52;;;;;;;5.13;4.10;;;;;;;;;;7298642;19;140552;-78
2022/04/21 01:25:20;;;;;;;5.35;4.13;;;;;;;;;;7297846;19;140845;-78
2022/04/21 01:27:52;;;;;;;5.32;3.45;;;;;;;;;;7297423;19;141335;-78
2022/04/21 01:30:19;;;;;;;4.93;3.60;;;;;;;;;;7297401;19;142385;-78
2022/04/21 01:32:49;;;;;;;4.90;3.70;;;;;;;;;;7295851;19;140690;-78
2022/04/21 01:35:17;;;;;;;5.07;3.80;;;;;;;;;;7299092;19;140822;-78
2022/04/21 01:43:16;;;;;;;3.80;3.40;;;;;;;;;;7305332;19;140810;-77
2022/04/21 01:45:44;;;;;;;5.40;3.92;;;;;;;;;;7304390;19;140790;-77
2022/04/21 01:48:11;;;;;;;4.47;3.75;;;;;;;;;;7303732;19;141123;-77
2022/04/21 01:50:39;;;;;;;4.70;3.58;;;;;;;;;;7304475;19;140872;-77
2022/04/21 01:53:06;;;;;;;4.60;3.50;;;;;;;;;;7304473;19;140637;-77
2022/04/21 01:55:33;;;;;;;3.78;3.35;;;;;;;;;;7304061;19;140540;-77
2022/04/21 01:58:00;;;;;;;4.10;3.38;;;;;;;;;;7303838;19;141417;-77
2022/04/21 02:00:27;;;;;;;4.22;3.22;;;;;;;;;;7303716;19;140942;-77
2022/04/21 02:02:54;;;;;;;3.72;3.15;;;;;;;;;;7303165;19;140937;-77
2022/04/21 02:05:22;;;;;;;5.03;3.53;;;;;;;;;;7304352;19;140916;-77
2022/04/21 02:07:49;;;;;;;4.38;3.38;;;;;;;;;;7304182;19;141777;-78
2022/04/21 02:10:19;;;;;;;3.92;3.30;;;;;;;;;;7303776;19;141144;-78
2022/04/21 02:12:46;;;;;;;4.47;3.58;;;;;;;;;;7303009;19;140951;-78
2022/04/21 02:15:14;;;;;;;3.88;3.20;;;;;;;;;;7303768;19;140571;-77
2022/04/21 02:17:41;;;;;;;4.55;3.25;;;;;;;;;;7301089;19;141921;-78
2022/04/21 02:20:10;;;;;;;3.97;3.22;;;;;;;;;;7301498;19;142879;-78
2022/04/21 02:22:37;;;;;;;4.47;3.30;;;;;;;;;;7303626;19;140774;-78
2022/04/21 02:25:06;;;;;;;4.32;2.90;;;;;;;;;;7303438;19;141479;-78
2022/04/21 02:27:35;;;;;;;3.95;3.05;;;;;;;;;;7303198;19;141869;-78
2022/04/21 02:30:03;;;;;;;3.53;2.80;;;;;;;;;;7302514;19;142172;-77
2022/04/21 02:32:30;;;;;;;3.60;2.85;;;;;;;;;;7303217;19;140992;-78
2022/04/21 02:34:57;;;;;;;3.78;3.08;;;;;;;;;;7303012;19;140684;-77
2022/04/21 02:37:24;;;;;;;3.42;2.72;;;;;;;;;;7302594;19;141224;-77
2022/04/21 02:39:52;;;;;;;4.18;2.67;;;;;;;;;;7303385;19;142619;-78
2022/04/21 02:42:21;;;;;;;3.35;2.58;;;;;;;;;;7302722;19;140958;-78
2022/04/21 02:44:48;;;;;;;4.03;2.85;;;;;;;;;;7302586;19;140658;-78
2022/04/21 02:47:16;;;;;;;3.20;2.80;;;;;;;;;;7300703;19;141246;-78
2022/04/21 02:49:45;;;;;;;3.40;2.72;;;;;;;;;;7302018;19;142018;-78
2022/04/21 02:52:13;;;;;;;3.97;2.83;;;;;;;;;;7301610;19;141032;-78
2022/04/21 02:57:28;;;;;;;2.78;2.33;;;;;;;;;;7301454;19;140717;-76
2022/04/21 02:59:57;;;;;;;3.80;2.63;;;;;;;;;;7301943;19;141861;-78
2022/04/21 03:02:25;;;;;;;4.43;2.95;;;;;;;;;;7300699;19;140909;-77
2022/04/21 03:04:54;;;;;;;2.83;2.40;;;;;;;;;;7300555;19;140703;-77
2022/04/21 03:07:22;;;;;;;2.80;2.42;;;;;;;;;;7302543;19;141162;-76
2022/04/21 03:09:53;;;;;;;3.53;2.42;;;;;;;;;;7301329;19;142599;-77
2022/04/21 03:12:23;;;;;;;;;;;;;;;;;;7302524;19;140450;-77
2022/04/21 03:14:50;;;;;;;3.53;2.53;;;;;;;;;;7301374;19;143287;-77
2022/04/21 03:17:17;;;;;;;3.22;2.40;;;;;;;;;;7299431;19;141486;-77
2022/04/21 03:19:45;;;;;;;2.65;2.40;;;;;;;;;;7301717;19;142359;-77
2022/04/21 03:25:03;;;;;;;3.03;2.13;;;;;;;;;;7301665;19;140706;-77
2022/04/21 03:27:31;;;;;;;3.38;2.08;;;;;;;;;;7301714;19;140706;-77
2022/04/21 03:30:08;;;;;;;2.95;2.30;;;;;;;;;;7298909;19;141963;-77
2022/04/21 03:32:36;;;;;;;3.20;2.28;;;;;;;;;;7299585;19;140843;-77
2022/04/21 03:35:03;;;;;;;2.65;2.20;;;;;;;;;;7301620;19;140620;-78
2022/04/21 03:37:31;;;;;;;2.47;2.10;;;;;;;;;;7300607;19;141013;-77
2022/04/21 03:39:58;;;;;;;2.75;2.35;;;;;;;;;;7300857;19;142590;-77
2022/04/21 03:42:27;;;;;;;2.58;2.15;;;;;;;;;;7299292;19;140597;-77
2022/04/21 03:44:55;;;;;;;2.30;2.00;;;;;;;;;;7300909;19;140734;-76
2022/04/21 03:47:22;;;;;;;2.70;2.20;;;;;;;;;;7299418;19;141280;-77
2022/04/21 03:49:53;;;;;;;3.03;1.95;;;;;;;;;;7298556;19;142002;-77
2022/04/21 03:52:20;;;;;;;2.30;2.10;;;;;;;;;;7300856;19;140840;-78
2022/04/21 03:54:47;;;;;;;2.50;1.92;;;;;;;;;;7299107;19;140705;-77
2022/04/21 03:57:14;;;;;;;2.65;2.17;;;;;;;;;;7300128;19;141230;-78
2022/04/21 03:59:41;;;;;;;2.78;2.10;;;;;;;;;;7297775;19;141873;-77
2022/04/21 04:02:08;;;;;;;2.30;2.00;;;;;;;;;;7299318;19;141164;-77
2022/04/21 04:04:37;;;;;;;2.45;2.08;;;;;;;;;;7299922;19;140650;-77
2022/04/21 04:12:38;;;;;;;1.95;1.63;;;;;;;;;;7299503;19;140801;-77
2022/04/21 04:15:06;;;;;;;1.90;1.80;;;;;;;;;;7306756;19;140632;-77
2022/04/21 04:17:33;;;;;;;2.05;1.85;;;;;;;;;;7308566;19;140744;-76
2022/04/21 04:20:01;;;;;;;2.85;1.67;;;;;;;;;;7304396;19;141211;-76
2022/04/21 04:22:28;;;;;;;2.15;1.75;;;;;;;;;;7300963;19;140534;-77
2022/04/21 04:24:56;;;;;;;2.00;1.80;;;;;;;;;;7300523;19;140804;-77
2022/04/21 04:27:24;;;;;;;1.92;1.73;;;;;;;;;;7298382;19;141637;-77
2022/04/21 04:29:53;;;;;;;2.00;1.80;;;;;;;;;;7298997;19;142039;-78
2022/04/21 04:32:21;;;;;;;2.30;1.90;;;;;;;;;;7298721;19;140816;-77
2022/04/21 04:34:48;;;;;;;1.80;1.70;;;;;;;;;;7298808;19;140623;-78
2022/04/21 04:37:15;;;;;;;2.65;1.90;;;;;;;;;;7303851;19;140729;-78
2022/04/21 04:39:43;;;;;;;2.30;1.98;;;;;;;;;;7296964;19;142674;-74
2022/04/21 04:42:22;;;;;;;2.05;1.70;;;;;;;;;;7298430;19;140675;-74
2022/04/21 04:47:38;;;;;;;2.25;1.63;;;;;;;;;;7298469;19;140625;-74
2022/04/21 04:50:06;;;;;;;1.95;1.63;;;;;;;;;;7298244;19;141830;-74
2022/04/21 04:52:34;;;;;;;1.88;1.67;;;;;;;;;;7299152;19;141121;-74
2022/04/21 04:55:01;;;;;;;1.75;1.60;;;;;;;;;;7298338;19;140766;-74
2022/04/21 04:57:28;;;;;;;1.95;1.77;;;;;;;;;;7298744;19;140568;-74
2022/04/21 05:00:00;;;;;;;1.95;1.75;;;;;;;;;;7296940;19;141864;-74
2022/04/21 05:02:27;;;;;;;1.88;1.50;;;;;;;;;;7297336;19;140765;-74
2022/04/21 05:04:55;;;;;;;3.30;1.90;;;;;;;;;;7298754;19;140975;-74
2022/04/21 05:07:22;;;;;;;2.00;1.80;;;;;;;;;;7298214;19;140501;-74
2022/04/21 05:09:49;;;;;;;2.90;1.67;;;;;;;;;;7296817;19;142031;-74
2022/04/21 05:12:16;;;;;;;2.55;1.80;;;;;;;;;;7297838;19;140903;-74
2022/04/21 05:14:43;;;;;;;1.65;1.52;;;;;;;;;;7298260;19;140676;-74
2022/04/21 05:17:10;;;;;;;1.50;1.40;;;;;;;;;;7295446;19;141070;-75
2022/04/21 05:19:38;;;;;;;2.28;1.65;;;;;;;;;;7297780;19;142119;-74
2022/04/21 05:22:06;;;;;;;2.40;1.50;;;;;;;;;;7297817;19;140982;-75
2022/04/21 05:24:34;;;;;;;1.75;1.50;;;;;;;;;;7297855;19;140494;-75
2022/04/21 05:27:02;;;;;;;1.63;1.52;;;;;;;;;;7297277;19;141403;-75
2022/04/21 05:32:18;;;;;;;1.80;1.55;;;;;;;;;;7297467;19;140997;-74
2022/04/21 05:34:46;;;;;;;1.60;1.50;;;;;;;;;;7298699;19;141325;-73
2022/04/21 05:37:13;;;;;;;1.85;1.60;;;;;;;;;;7296589;19;141787;-74
2022/04/21 05:39:43;;;;;;;2.23;1.70;;;;;;;;;;7297190;19;143468;-73
2022/04/21 05:42:17;;;;;;;1.40;1.30;;;;;;;;;;7297219;19;140603;-74
2022/04/21 05:44:45;;;;;;;1.55;1.45;;;;;;;;;;7297154;19;140715;-74
2022/04/21 05:47:15;;;;;;;1.50;1.40;;;;;;;;;;7297571;19;141331;-74
2022/04/21 05:49:42;;;;;;;1.40;1.30;;;;;;;;;;7295593;19;141822;-74
2022/04/21 05:52:12;;;;;;;1.70;1.42;;;;;;;;;;7296991;19;140934;-75
2022/04/21 05:54:41;;;;;;;1.47;1.30;;;;;;;;;;7298434;19;140903;-75
2022/04/21 05:57:08;;;;;;;1.90;1.50;;;;;;;;;;7296817;19;141446;-75
2022/04/21 05:59:35;;;;;;;2.10;1.60;;;;;;;;;;7296556;19;142639;-75
2022/04/21 06:02:06;;;;;;;1.40;1.30;;;;;;;;;;7296538;19;140949;-75
2022/04/21 06:04:33;;;;;;;1.90;1.50;;;;;;;;;;7296273;19;142391;-74
2022/04/21 06:07:00;;;;;;;1.52;1.30;;;;;;;;;;7296505;19;141234;-75
2022/04/21 06:09:27;;;;;;;1.42;1.33;;;;;;;;;;7295842;19;141921;-74
2022/04/21 06:11:54;;;;;;;1.48;1.25;;;;;;;;;;7296754;19;141304;-74
2022/04/21 06:14:21;;;;;;;1.40;1.30;;;;;;;;;;7296556;19;141263;-75
2022/04/21 06:16:48;;;;;;;1.40;1.20;;;;;;;;;;7296344;19;140763;-74
2022/04/21 06:19:15;;;;;;;2.15;1.30;;;;;;;;;;7294500;19;141221;-73
2022/04/21 06:21:42;;;;;;;1.30;1.20;;;;;;;;;;7295917;19;141324;-75
2022/04/21 06:24:10;;;;;;;1.38;1.17;;;;;;;;;;7303510;19;140742;-73
2022/04/21 06:26:38;;;;;;;1.35;1.20;;;;;;;;;;7303072;19;141854;-73
2022/04/21 06:29:05;;;;;;;1.40;1.30;;;;;;;;;;7301131;19;141813;-73
2022/04/21 06:31:36;;;;;;;1.77;1.35;;;;;;;;;;7303296;19;140666;-73
2022/04/21 06:34:04;;;;;;;1.42;1.20;;;;;;;;;;7301185;19;141434;-73
2022/04/21 06:36:31;;;;;;;1.30;1.20;;;;;;;;;;7302529;19;142486;-74
2022/04/21 06:38:58;;;;;;;1.38;1.20;;;;;;;;;;7302430;19;141838;-74
2022/04/21 06:41:25;;;;;;;1.60;1.20;;;;;;;;;;7303044;19;140881;-74
2022/04/21 06:49:25;;;;;;;0.98;0.90;;;;;;;;;;7301598;19;140871;-74
2022/04/21 06:51:52;;;;;;;1.70;1.30;;;;;;;;;;7300872;19;140546;-74
2022/04/21 06:54:19;;;;;;;1.52;1.20;;;;;;;;;;7302184;19;140583;-74
2022/04/21 06:56:48;;;;;;;1.45;1.27;;;;;;;;;;7302909;19;141615;-74
2022/04/21 06:59:16;;;;;;;1.23;1.10;;;;;;;;;;7302279;19;141442;-74
2022/04/21 07:01:46;;;;;;;1.10;1.00;;;;;;;;;;7299947;19;141147;-73
2022/04/21 07:04:14;;;;;;;1.75;1.30;;;;;;;;;;7301270;19;140610;-74
2022/04/21 07:06:41;;;;;;;1.23;1.13;;;;;;;;;;7301777;19;141420;-74
2022/04/21 07:09:08;;;;;;;1.27;1.10;;;;;;;;;;7300206;19;141599;-73
2022/04/21 07:11:38;;;;;;;1.30;1.20;;;;;;;;;;7301461;19;140652;-74
2022/04/21 07:14:05;;;;;;;1.10;1.00;;;;;;;;;;7300599;19;140703;-74
2022/04/21 07:16:32;;;;;;;2.05;1.15;;;;;;;;;;7301044;19;141263;-73
2022/04/21 07:18:59;;;;;;;1.50;1.38;;;;;;;;;;7300568;19;142763;-74
2022/04/21 07:21:27;;;;;;;1.20;1.08;;;;;;;;;;7301783;19;140780;-74
2022/04/21 07:23:54;;;;;;;0.90;0.90;;;;;;;;;;7310797;19;141331;-74
2022/04/21 07:26:21;;;;;;;1.02;0.98;;;;;;;;;;7309227;19;141158;-74
2022/04/21 07:28:54;;;;;;;1.27;1.17;;;;;;;;;;7307936;19;141449;-74
2022/04/21 07:31:21;;;;;;;1.10;1.00;;;;;;;;;;7301778;19;140644;-74
2022/04/21 07:33:48;;;;;;;0.80;0.80;;;;;;;;;;7300032;19;140618;-73
2022/04/21 07:36:15;;;;;;;1.08;0.98;;;;;;;;;;7300342;19;143077;-75
2022/04/21 07:38:43;;;;;;;1.10;1.00;;;;;;;;;;7301376;19;141830;-74
2022/04/21 07:41:10;;;;;;;1.00;0.90;;;;;;;;;;7301152;19;140596;-73
2022/04/21 07:43:42;;;;;;;1.08;0.95;;;;;;;;;;7300357;19;140688;-74
2022/04/21 07:46:10;;;;;;;1.23;1.10;;;;;;;;;;7300920;19;140763;-76
2022/04/21 07:51:23;;;;;;;1.20;1.10;;;;;;;;;;7301066;19;140442;-74
2022/04/21 07:53:50;;;;;;;1.13;1.00;;;;;;;;;;7301182;19;140587;-73
2022/04/21 07:56:17;;;;;;;1.10;1.00;;;;;;;;;;7299843;19;140997;-74
2022/04/21 07:58:44;;;;;;;1.17;1.00;;;;;;;;;;7300596;19;140821;-73
2022/04/21 08:01:13;;;;;;;1.02;0.82;;;;;;;;;;7299739;19;140830;-75
2022/04/21 08:03:43;;;;;;;1.05;0.95;;;;;;;;;;7299587;19;140803;-74
2022/04/21 08:06:12;;;;;;;1.05;0.98;;;;;;;;;;7297893;19;141185;-74
2022/04/21 08:08:40;;;;;;;0.80;0.80;;;;;;;;;;7299723;19;142033;-74
2022/04/21 08:11:07;;;;;;;1.00;0.88;;;;;;;;;;7297898;19;140737;-74
2022/04/21 08:13:35;;;;;;;1.20;1.10;;;;;;;;;;7299755;19;140532;-75
2022/04/21 08:16:02;;;;;;;0.82;0.82;;;;;;;;;;7302497;19;141102;-75
2022/04/21 08:18:30;;;;;;;0.90;0.90;;;;;;;;;;7298376;19;142034;-74
2022/04/21 08:20:58;;;;;;;1.02;0.93;;;;;;;;;;7299369;19;141742;-74
2022/04/21 08:23:42;;;;;;;1.17;0.90;;;;;;;;;;7298901;19;141172;-73
2022/04/21 08:34:39;;;;;;;1.23;1.00;;;;;;;;;;7299229;19;140555;-74
2022/04/21 08:37:06;;;;;;;0.80;0.80;;;;;;;;;;7299494;19;141358;-74
2022/04/21 08:39:33;;;;;;;1.45;1.00;;;;;;;;;;7298556;19;141873;-75
2022/04/21 08:42:10;;;;;;;0.90;0.90;;;;;;;;;;7300686;19;140453;-75
2022/04/21 08:44:43;;;;;;;0.80;0.80;;;;;;;;;;7298176;19;140564;-74
2022/04/21 08:47:14;;;;;;;1.00;0.80;;;;;;;;;;7299091;19;141377;-73
2022/04/21 08:49:47;;;;;;;0.82;0.80;;;;;;;;;;7297494;19;141661;-74
2022/04/21 08:52:16;;;;;;;1.00;0.90;;;;;;;;;;7298914;19;140877;-75
2022/04/21 08:54:43;;;;;;;1.25;0.85;;;;;;;;;;7296872;19;140646;-74
2022/04/21 08:57:11;;;;;;;1.20;0.90;;;;;;;;;;7298653;19;142334;-74
2022/04/21 08:59:38;;;;;;;0.80;0.80;;;;;;;;;;7295592;19;142661;-75
2022/04/21 09:02:05;;;;;;;0.85;0.80;;;;;;;;;;7297852;19;140534;-75
2022/04/21 09:04:33;;;;;;;0.77;0.77;;;;;;;;;;7297412;19;140720;-75
2022/04/21 09:07:21;;;;;;;1.20;1.10;;;;;;;;;;7295989;19;142876;-74
2022/04/21 09:10:11;;;;;;;0.90;0.90;;;;;;;;;;7298210;19;140886;-75
2022/04/21 09:12:46;;;;;;;0.77;0.77;;;;;;;;;;7296576;19;141545;-75
2022/04/21 09:15:17;;;;;;;0.95;0.80;;;;;;;;;;7295224;19;140583;-74
2022/04/21 09:17:58;;;;;;;1.55;0.90;;;;;;;;;;7297111;19;141957;-75
2022/04/21 09:20:31;;;;;;;0.85;0.77;;;;;;;;;;7296525;19;141871;-75
2022/04/21 09:23:01;;;;;;;1.50;0.65;;;;;;;;;;7297502;19;140832;-75
2022/04/21 09:25:31;;;;;;;0.98;0.85;;;;;;;;;;7296926;19;140608;-76
2022/04/21 09:28:02;;;;;;;0.82;0.82;;;;;;;;;;7296665;19;141158;-75
2022/04/21 09:30:29;;;;;;;0.90;0.90;;;;;;;;;;7296452;19;140993;-74
2022/04/21 09:33:00;;;;;;;0.70;0.70;;;;;;;;;;7295505;19;141534;-75
2022/04/21 09:35:33;;;;;;;0.77;0.77;;;;;;;;;;7296174;19;140617;-76
2022/04/21 09:38:03;;;;;;;0.95;0.80;;;;;;;;;;7297022;19;141314;-75
2022/04/21 09:40:32;;;;;;;1.00;0.60;;;;;;;;;;7296756;19;141214;-75
2022/04/21 09:43:01;;;;;;;0.95;0.90;;;;;;;;;;7296782;19;140614;-75
2022/04/21 09:48:33;;;;;;;0.80;0.80;;;;;;;;;;7295642;19;140677;-75
2022/04/21 09:51:24;;;;;;;0.88;0.88;;;;;;;;;;7295688;19;142561;-75
2022/04/21 09:53:58;;;;;;;0.83;0.70;;;;;;;;;;7298103;19;140678;-76
2022/04/21 09:56:41;;;;;;;1.20;1.10;;;;;;;;;;7303431;19;140994;-75
2022/04/21 09:59:09;;;;;;;;;;;;;;;;;;7305463;19;140689;-73
2022/04/21 10:01:42;;;;;;;0.80;0.80;;;;;;;;;;7302552;19;151697;-75
2022/04/21 10:04:13;;;;;;;0.80;0.80;;;;;;;;;;7304017;19;141304;-75
2022/04/21 10:06:42;;;;;;;0.90;0.80;;;;;;;;;;7303832;19;140676;-75
2022/04/21 10:09:12;;;;;;;0.70;0.70;;;;;;;;;;7303636;19;141540;-75
2022/04/21 10:11:43;;;;;;;0.70;0.70;;;;;;;;;;7302912;19;141760;-75
2022/04/21 10:14:12;;;;;;;0.70;0.70;;;;;;;;;;7303788;19;141355;-75
2022/04/21 10:16:45;;;;;;;0.70;0.70;;;;;;;;;;7301617;19;140926;-75
2022/04/21 10:19:19;;;;;;;1.45;0.80;;;;;;;;;;7301911;19;141041;-74
2022/04/21 10:21:51;;;;;;;1.23;0.80;;;;;;;;;;7302532;19;142626;-75
2022/04/21 10:24:23;;;;;;;1.17;0.70;;;;;;;;;;7301014;19;140713;-76
2022/04/21 10:26:51;;;;;;;0.70;0.70;;;;;;;;;;7302776;19;140717;-74
2022/04/21 10:29:27;;;;;;;0.70;0.70;;;;;;;;;;7302107;19;141960;-74
2022/04/21 10:32:04;;;;;;;0.70;0.70;;;;;;;;;;7302276;19;143184;-73
2022/04/21 10:34:44;;;;;;;0.57;0.57;;;;;;;;;;7301757;19;140714;-73
2022/04/21 10:37:16;;;;;;;0.70;0.70;;;;;;;;;;7300372;19;140793;-74
2022/04/21 10:40:15;;;;;;;0.77;0.77;;;;;;;;;;7301659;19;141259;-73
2022/04/21 10:42:58;;;;;;;0.70;0.70;;;;;;;;;;7300030;19;141785;-74
2022/04/21 10:45:27;;;;;;;0.60;0.60;;;;;;;;;;7301855;19;140538;-75
2022/04/21 10:48:09;;;;;;;0.80;0.80;;;;;;;;;;7301655;19;140754;-73
2022/04/21 10:50:37;;;;;;;0.60;0.60;;;;;;;;;;7301113;19;140789;-73
2022/04/21 10:58:36;;;;;;;0.82;0.65;;;;;;;;;;7300244;19;140826;-74
2022/04/21 11:01:11;;;;;;;0.82;0.70;;;;;;;;;;7300346;19;140876;-74
2022/04/21 11:03:39;;;;;;;0.60;0.60;;;;;;;;;;7301039;19;141864;-74
2022/04/21 11:06:17;;;;;;;0.70;0.70;;;;;;;;;;7300899;19;141828;-74
2022/04/21 11:08:50;;;;;;;1.00;0.80;;;;;;;;;;7301670;19;140915;-74
2022/04/21 11:11:44;;;;;;;1.02;0.77;;;;;;;;;;7301039;19;140919;-74
2022/04/21 11:14:11;;;;;;;0.60;0.60;;;;;;;;;;7300256;19;141081;-74
2022/04/21 11:16:41;;;;;;;0.70;0.70;;;;;;;;;;7301798;19;140845;-74
2022/04/21 11:19:40;;;;;;;0.73;0.70;;;;;;;;;;7300765;19;140563;-74
2022/04/21 11:22:09;;;;;;;0.60;0.60;;;;;;;;;;7299649;19;141193;-74
2022/04/21 11:25:05;;;;;;;0.70;0.70;;;;;;;;;;7300619;19;140695;-73
2022/04/21 11:27:34;;;;;;;0.70;0.70;;;;;;;;;;7300236;19;140842;-73
2022/04/21 11:30:05;;;;;;;0.65;0.65;;;;;;;;;;7300568;19;140670;-73
2022/04/21 11:32:32;;;;;;;;;;;;;;;;;;7300514;19;142057;-73
2022/04/21 11:35:12;;;;;;;0.60;0.60;;;;;;;;;;7300729;19;140640;-73
2022/04/21 11:37:48;;;;;;;0.70;0.70;;;;;;;;;;7299288;19;140753;-73
2022/04/21 11:40:22;;;;;;;0.70;0.70;;;;;;;;;;7299530;19;140740;-74
2022/04/21 11:42:50;;;;;;;0.70;0.70;;;;;;;;;;7299176;19;141243;-74
2022/04/21 11:45:19;;;;;;;0.60;0.60;;;;;;;;;;7299938;19;141502;-74
2022/04/21 11:47:47;;;;;;;0.70;0.60;;;;;;;;;;7299985;19;140877;-74
2022/04/21 11:50:22;;;;;;;0.70;0.70;;;;;;;;;;7297700;19;140751;-74
2022/04/21 11:52:52;;;;;;;0.68;0.68;;;;;;;;;;7297832;19;142985;-74
2022/04/21 11:55:24;;;;;;;0.55;0.55;;;;;;;;;;7299753;19;141675;-74
2022/04/21 11:57:52;;;;;;;0.52;0.52;;;;;;;;;;7299918;19;140591;-75
2022/04/21 12:06:28;;;;;;;0.80;0.80;;;;;;;;;;7298130;19;141699;-75
2022/04/21 12:08:47;;;;;;;0.70;0.70;;;;;;;;;;7300476;19;141455;-75
2022/04/21 12:11:17;;;;;;;1.20;1.08;;;;;;;;;;7297684;19;141375;-75
2022/04/21 12:13:49;;;;;;;1.10;0.98;;;;;;;;;;7298389;19;141003;-75
2022/04/21 12:16:33;;;;;;;1.38;1.23;;;;;;;;;;7299058;19;140883;-74
2022/04/21 12:19:26;;;;;;;1.13;1.02;;;;;;;;;;7297710;19;140622;-75
2022/04/21 12:22:13;;;;;;;1.20;0.98;;;;;;;;;;7297982;19;141494;-74
2022/04/21 12:24:43;;;;;;;1.10;0.90;;;;;;;;;;7296809;19;140722;-75
2022/04/21 12:27:19;;;;;;;1.33;1.10;;;;;;;;;;7299109;19;141114;-74
2022/04/21 12:30:01;;;;;;;1.55;1.38;;;;;;;;;;7297100;19;140786;-77
2022/04/21 12:32:33;;;;;;;1.77;1.45;;;;;;;;;;7296914;19;140645;-77
2022/04/21 12:35:21;;;;;;;1.83;1.42;;;;;;;;;;7298774;19;140862;-77
2022/04/21 12:40:39;;;;;;;1.57;1.13;;;;;;;;;;7299127;19;140674;-76
2022/04/21 12:43:07;;;;;;;1.33;1.20;;;;;;;;;;7298528;19;140501;-77
2022/04/21 12:45:34;;;;;;;1.73;1.55;;;;;;;;;;7297595;19;142354;-77
2022/04/21 12:48:02;;;;;;;1.67;1.50;;;;;;;;;;7297952;19;141035;-78
2022/04/21 12:50:32;;;;;;;1.40;1.30;;;;;;;;;;7297923;19;141893;-77
2022/04/21 12:52:59;;;;;;;2.30;1.60;;;;;;;;;;7296130;19;140524;-77
2022/04/21 12:55:31;;;;;;;1.77;1.40;;;;;;;;;;7295868;19;141324;-76
2022/04/21 12:58:10;;;;;;;1.90;1.60;;;;;;;;;;7297069;19;142943;-76
2022/04/21 13:00:38;;;;;;;1.95;1.40;;;;;;;;;;7298151;19;140709;-76
2022/04/21 13:03:08;;;;;;;1.67;1.40;;;;;;;;;;7295812;19;140742;-77
2022/04/21 13:05:54;;;;;;;1.87;1.40;;;;;;;;;;7296751;19;141570;-77
2022/04/21 13:11:37;;;;;;;14.73;7.25;;;;;;;;;;7224283;19;143791;-75
2022/04/21 13:14:05;;;;;;;13.90;6.25;;;;;;;;;;7297014;19;140726;-76
2022/04/21 13:16:32;;;;;;;8.65;5.78;;;;;;;;;;7296117;19;141246;-76
2022/04/21 13:19:00;;;;;;;9.77;5.65;;;;;;;;;;7295317;19;142986;-75
2022/04/21 13:21:52;;;;;;;9.05;5.53;;;;;;;;;;7297475;19;140623;-76
2022/04/21 13:24:20;;;;;;;8.82;5.30;;;;;;;;;;7297634;19;140625;-77
2022/04/21 13:26:47;;;;;;;8.02;5.32;;;;;;;;;;7296272;19;141574;-77
2022/04/21 13:29:14;;;;;;;11.05;5.55;;;;;;;;;;7296581;19;142904;-78
2022/04/21 13:34:27;;;;;;;7.55;5.20;;;;;;;;;;7305157;19;140683;-78
2022/04/21 13:37:01;;;;;;;9.80;6.18;;;;;;;;;;7302587;19;141863;-78
2022/04/21 13:39:29;;;;;;;10.30;5.80;;;;;;;;;;7304588;19;140920;-78
2022/04/21 13:42:01;;;;;;;24.48;12.93;;;;;;;;;;7304712;19;140874;-78
2022/04/21 13:44:29;;;;;;;63.78;29.58;;;;;;;;;;7303669;19;141299;-80
2022/04/21 13:47:19;;;;;;;75.25;36.65;;;;;;;;;;7302784;19;141319;-79
2022/04/21 13:49:46;;;;;;;102.90;44.38;;;;;;;;;;7302428;19;140806;-80
2022/04/21 13:52:13;;;;;;;113.80;53.25;;;;;;;;;;7303908;19;140782;-79
2022/04/21 14:18:15;;;;;;;143.32;62.88;;;;;;;;;;7295390;19;141328;-82
2022/04/21 14:20:52;;;;;;;136.02;57.45;;;;;;;;;;7318481;19;140746;-80
2022/04/21 14:23:27;;;;;;;143.27;58.85;;;;;;;;;;7317006;19;141389;-81
2022/04/21 14:26:44;;;;;;;143.43;58.40;;;;;;;;;;7315469;19;140818;-80
2022/04/21 14:29:18;;;;;;;138.15;56.95;;;;;;;;;;7309863;19;140618;-81
2022/04/21 14:45:44;;;;;;;95.00;42.72;;;;;;;;;;7299567;19;141429;-80
2022/04/21 14:55:47;;;;;;;78.05;36.83;;;;;;;;;;7300373;19;141118;-82
2022/04/21 14:58:15;;;;;;;86.25;37.28;;;;;;;;;;7300527;19;140770;-83
2022/04/21 15:01:45;;;;;;;82.70;37.17;;;;;;;;;;7301038;19;144303;-83
2022/04/21 15:08:13;;;;;;;67.57;33.65;;;;;;;;;;7299268;19;140650;-84
2022/04/21 15:14:01;;;;;;;70.28;33.60;;;;;;;;;;7300660;19;140610;-83
2022/04/21 15:16:56;;;;;;;65.55;31.45;;;;;;;;;;7287778;19;144280;-79
2022/04/21 15:23:11;;;;;;;65.05;31.92;;;;;;;;;;7300523;19;140760;-84
2022/04/21 15:25:44;;;;;;;59.13;29.40;;;;;;;;;;7301072;19;140818;-82
2022/04/21 15:28:12;;;;;;;57.60;29.48;;;;;;;;;;7298765;19;142049;-83
2022/04/21 15:31:05;;;;;;;58.63;29.15;;;;;;;;;;7301289;19;141206;-81
2022/04/21 15:33:33;;;;;;;56.58;28.48;;;;;;;;;;7300824;19;141489;-81
2022/04/21 15:36:00;;;;;;;55.58;28.40;;;;;;;;;;7298192;19;140695;-82
2022/04/21 15:38:34;;;;;;;55.92;28.73;;;;;;;;;;7300743;19;141214;-82
2022/04/21 15:41:06;;;;;;;56.22;27.70;;;;;;;;;;7300828;19;140863;-81
2022/04/21 15:47:27;;;;;;;56.38;26.45;;;;;;;;;;7292904;19;141558;-79
2022/04/21 15:50:22;;;;;;;50.15;25.42;;;;;;;;;;7301401;19;141103;-80
2022/04/21 15:52:49;;;;;;;47.83;24.15;;;;;;;;;;7299355;19;140496;-79
2022/04/21 16:01:36;;;;;;;46.05;23.92;;;;;;;;;;7298033;19;143599;-80
2022/04/21 16:04:17;;;;;;;42.65;20.98;;;;;;;;;;7297721;19;140699;-80
2022/04/21 16:10:59;;;;;;;38.00;18.98;;;;;;;;;;7276271;19;144653;-79
2022/04/21 16:13:53;;;;;;;37.10;19.23;;;;;;;;;;7296698;19;141398;-79
2022/04/21 16:23:16;;;;;;;35.33;18.30;;;;;;;;;;7296145;19;140778;-78
2022/04/21 16:25:56;;;;;;;34.95;17.27;;;;;;;;;;7297921;19;141981;-77
2022/04/21 16:28:23;;;;;;;30.47;16.67;;;;;;;;;;7297904;19;140788;-78
2022/04/21 16:31:24;;;;;;;32.05;16.77;;;;;;;;;;7298200;19;140608;-79
2022/04/21 16:34:02;;;;;;;;;;;;;;;;;;;;;
2022/04/21 16:37:00;;;;;;;31.95;16.38;;;;;;;;;;7299924;19;141413;-77
2022/04/21 16:39:28;;;;;;;31.80;16.05;;;;;;;;;;7298328;19;140698;-78
2022/04/21 16:43:04;;;;;;;32.08;15.82;;;;;;;;;;7295828;19;141236;-78
2022/04/21 16:45:32;;;;;;;28.05;15.02;;;;;;;;;;7295374;19;142927;-78
2022/04/21 16:48:23;;;;;;;31.10;15.65;;;;;;;;;;7293692;19;141455;-78
2022/04/21 16:51:11;;;;;;;28.17;14.85;;;;;;;;;;7293093;19;140977;-77
2022/04/21 16:53:41;;;;;;;25.15;14.43;;;;;;;;;;7296373;19;141199;-78
2022/04/21 16:56:08;;;;;;;30.80;15.65;;;;;;;;;;7297266;19;141478;-77
2022/04/21 16:58:35;;;;;;;27.58;15.45;;;;;;;;;;7296999;19;143105;-80
2022/04/21 17:03:53;;;;;;;24.07;14.03;;;;;;;;;;7297830;19;140691;-81
2022/04/21 17:06:20;;;;;;;26.55;14.63;;;;;;;;;;7294574;19;140692;-79
2022/04/21 17:08:47;;;;;;;28.58;14.15;;;;;;;;;;7296972;19;141846;-79
2022/04/21 17:11:15;;;;;;;27.42;14.32;;;;;;;;;;7296575;19;141340;-78
2022/04/21 17:13:58;;;;;;;24.63;13.98;;;;;;;;;;7295046;19;140801;-78
2022/04/21 17:16:54;;;;;;;23.92;13.68;;;;;;;;;;7296516;19;140500;-77